createdAt,value
2017-12-12T00:00:50.302Z,21.00
2017-12-12T00:03:17.926Z,17.77
2017-12-12T00:05:45.530Z,18.20
2017-12-12T00:08:13.156Z,19.70
2017-12-12T00:10:41.057Z,20.67
2017-12-12T00:13:08.635Z,18.87
2017-12-12T00:15:36.247Z,18.00
2017-12-12T00:18:03.840Z,23.50
2017-12-12T00:20:31.468Z,21.30
2017-12-12T00:22:59.082Z,16.30
2017-12-12T00:25:26.657Z,16.17
2017-12-12T00:27:54.287Z,16.57
2017-12-12T00:30:21.876Z,17.33
2017-12-12T00:32:49.529Z,16.47
2017-12-12T00:35:17.100Z,17.70
2017-12-12T00:40:18.393Z,14.00
2017-12-12T00:42:46.321Z,15.50
2017-12-12T00:45:13.960Z,15.90
2017-12-12T00:47:41.538Z,17.00
2017-12-12T00:50:09.118Z,14.87
2017-12-12T00:52:36.720Z,14.00
2017-12-12T00:55:04.318Z,14.90
2017-12-12T00:57:31.884Z,13.00
2017-12-12T00:59:59.492Z,13.37
2017-12-12T01:02:27.065Z,15.67
2017-12-12T01:04:54.640Z,12.53
2017-12-12T01:07:22.232Z,14.80
2017-12-12T01:09:49.813Z,13.90
2017-12-12T01:12:17.440Z,11.90
2017-12-12T01:14:45.018Z,18.10
2017-12-12T01:17:12.604Z,14.03
2017-12-12T01:19:40.218Z,12.10
2017-12-12T01:22:07.796Z,12.53
2017-12-12T01:24:35.420Z,11.73
2017-12-12T01:27:03.002Z,13.97
2017-12-12T01:29:30.624Z,13.60
2017-12-12T01:31:58.235Z,12.60
2017-12-12T01:34:25.826Z,13.37
2017-12-12T01:36:53.446Z,13.40
2017-12-12T01:39:21.040Z,15.60
2017-12-12T01:41:48.645Z,12.03
2017-12-12T01:44:16.236Z,14.50
2017-12-12T01:46:44.119Z,19.63
2017-12-12T01:49:11.755Z,11.80
2017-12-12T01:51:39.327Z,21.87
2017-12-12T01:54:06.913Z,16.10
2017-12-12T01:56:34.539Z,11.90
2017-12-12T01:59:02.131Z,13.10
2017-12-12T02:01:29.761Z,14.83
2017-12-12T02:03:57.344Z,18.17
2017-12-12T02:06:24.968Z,12.93
2017-12-12T02:08:52.580Z,12.07
2017-12-12T02:11:20.194Z,12.70
2017-12-12T02:13:47.808Z,13.30
2017-12-12T02:16:15.380Z,12.10
2017-12-12T02:18:42.961Z,14.90
2017-12-12T02:21:10.555Z,12.30
2017-12-12T02:23:38.147Z,11.03
2017-12-12T02:26:05.808Z,26.00
2017-12-12T02:28:33.383Z,13.60
2017-12-12T02:31:00.975Z,12.60
2017-12-12T02:33:28.901Z,11.10
2017-12-12T02:35:56.485Z,10.63
2017-12-12T02:38:24.428Z,11.03
2017-12-12T02:40:52.010Z,14.33
2017-12-12T02:43:19.573Z,12.90
2017-12-12T02:45:47.164Z,12.27
2017-12-12T02:48:14.744Z,11.77
2017-12-12T02:50:42.647Z,11.47
2017-12-12T02:53:10.239Z,9.70
2017-12-12T02:55:37.814Z,11.07
2017-12-12T02:58:05.430Z,10.00
2017-12-12T03:00:33.020Z,13.30
2017-12-12T03:03:00.654Z,9.80
2017-12-12T03:05:28.521Z,10.60
2017-12-12T03:07:56.093Z,10.10
2017-12-12T03:10:23.684Z,9.43
2017-12-12T03:12:51.264Z,9.60
2017-12-12T03:15:18.873Z,9.23
2017-12-12T03:17:46.466Z,9.23
2017-12-12T03:20:14.036Z,13.43
2017-12-12T03:22:41.631Z,9.80
2017-12-12T03:25:09.209Z,10.80
2017-12-12T03:27:36.822Z,9.27
2017-12-12T03:30:04.417Z,9.63
2017-12-12T03:32:31.983Z,12.00
2017-12-12T03:34:59.589Z,9.40
2017-12-12T03:37:27.159Z,9.10
2017-12-12T03:39:54.769Z,9.10
2017-12-12T03:42:22.449Z,9.47
2017-12-12T03:44:50.317Z,9.93
2017-12-12T03:47:17.907Z,10.80
2017-12-12T03:49:45.580Z,8.80
2017-12-12T03:52:13.201Z,9.30
2017-12-12T03:54:40.783Z,9.20
2017-12-12T03:57:08.351Z,9.23
2017-12-12T03:59:35.945Z,9.40
2017-12-12T04:02:03.544Z,11.57
2017-12-12T04:04:31.149Z,9.10
2017-12-12T04:06:58.722Z,9.30
2017-12-12T04:09:26.353Z,8.67
2017-12-12T04:11:53.965Z,9.40
2017-12-12T04:14:21.540Z,8.73
2017-12-12T04:16:49.150Z,8.77
2017-12-12T04:19:16.762Z,8.77
2017-12-12T04:21:44.355Z,10.60
2017-12-12T04:24:11.946Z,10.10
2017-12-12T04:26:39.541Z,8.57
2017-12-12T04:29:07.152Z,9.67
2017-12-12T04:31:34.724Z,8.70
2017-12-12T04:34:02.305Z,8.80
2017-12-12T04:36:30.221Z,10.30
2017-12-12T04:38:58.087Z,8.83
2017-12-12T04:41:25.754Z,8.90
2017-12-12T04:43:53.363Z,9.47
2017-12-12T04:46:20.938Z,8.40
2017-12-12T04:48:48.543Z,9.23
2017-12-12T04:51:16.399Z,8.63
2017-12-12T04:53:44.026Z,12.00
2017-12-12T04:56:11.727Z,9.40
2017-12-12T04:58:39.592Z,8.87
2017-12-12T05:01:07.212Z,9.73
2017-12-12T05:03:35.121Z,9.03
2017-12-12T05:06:02.746Z,8.93
2017-12-12T05:08:30.335Z,11.07
2017-12-12T05:10:57.924Z,9.80
2017-12-12T05:13:25.876Z,8.90
2017-12-12T05:15:53.465Z,9.23
2017-12-12T05:18:21.092Z,8.77
2017-12-12T05:20:48.963Z,8.87
2017-12-12T05:23:16.547Z,8.83
2017-12-12T05:25:44.140Z,8.60
2017-12-12T05:28:11.722Z,8.40
2017-12-12T05:30:39.358Z,8.63
2017-12-12T05:33:06.946Z,8.87
2017-12-12T05:35:34.532Z,11.30
2017-12-12T05:38:02.144Z,9.63
2017-12-12T05:40:29.747Z,8.20
2017-12-12T05:42:57.365Z,8.70
2017-12-12T05:45:24.943Z,9.30
2017-12-12T05:47:52.525Z,9.20
2017-12-12T05:50:20.144Z,8.30
2017-12-12T05:52:47.770Z,9.03
2017-12-12T05:55:15.388Z,9.07
2017-12-12T05:57:42.955Z,9.93
2017-12-12T06:00:10.529Z,8.93
2017-12-12T06:02:38.133Z,10.00
2017-12-12T06:05:05.708Z,9.30
2017-12-12T06:07:33.319Z,8.70
2017-12-12T06:10:00.929Z,8.90
2017-12-12T06:12:28.491Z,9.30
2017-12-12T06:14:56.091Z,8.87
2017-12-12T06:17:23.684Z,9.30
2017-12-12T06:19:51.312Z,9.20
2017-12-12T06:22:19.316Z,9.03
2017-12-12T06:24:46.893Z,8.80
2017-12-12T06:27:14.741Z,8.73
2017-12-12T06:29:42.324Z,9.00
2017-12-12T06:32:09.944Z,9.10
2017-12-12T06:34:37.833Z,8.67
2017-12-12T06:37:05.415Z,12.43
2017-12-12T06:39:33.025Z,8.27
2017-12-12T06:42:00.612Z,9.43
2017-12-12T06:44:30.623Z,8.40
2017-12-12T06:46:58.241Z,8.77
2017-12-12T06:49:25.819Z,8.63
2017-12-12T06:51:53.415Z,8.40
2017-12-12T06:54:21.094Z,8.53
2017-12-12T06:56:48.715Z,8.03
2017-12-12T06:59:16.320Z,8.93
2017-12-12T07:01:43.983Z,8.47
2017-12-12T07:04:12.674Z,8.30
2017-12-12T07:06:40.325Z,8.43
2017-12-12T07:09:07.968Z,8.50
2017-12-12T07:11:35.578Z,8.57
2017-12-12T07:14:03.156Z,8.17
2017-12-12T07:16:30.766Z,11.40
2017-12-12T07:18:58.337Z,8.40
2017-12-12T07:21:25.956Z,8.20
2017-12-12T07:23:53.546Z,8.50
2017-12-12T07:26:21.123Z,8.73
2017-12-12T07:28:48.724Z,8.80
2017-12-12T07:31:16.342Z,8.80
2017-12-12T07:33:43.964Z,8.23
2017-12-12T07:36:11.932Z,8.07
2017-12-12T07:38:39.519Z,8.20
2017-12-12T07:41:08.571Z,7.60
2017-12-12T07:43:36.140Z,8.43
2017-12-12T07:46:03.771Z,8.07
2017-12-12T07:48:31.388Z,8.17
2017-12-12T07:50:58.977Z,7.93
2017-12-12T07:53:26.939Z,8.43
2017-12-12T07:55:54.543Z,8.07
2017-12-12T07:58:22.163Z,7.93
2017-12-12T08:00:49.761Z,7.87
2017-12-12T08:03:17.327Z,8.10
2017-12-12T08:05:44.927Z,8.07
2017-12-12T08:08:12.817Z,8.80
2017-12-12T08:10:40.410Z,8.17
2017-12-12T08:13:08.022Z,8.00
2017-12-12T08:15:35.590Z,8.60
2017-12-12T08:18:03.468Z,8.50
2017-12-12T08:20:31.098Z,7.80
2017-12-12T08:22:58.704Z,8.90
2017-12-12T08:25:26.570Z,8.73
2017-12-12T08:27:54.186Z,9.10
2017-12-12T08:30:21.764Z,9.40
2017-12-12T08:32:49.373Z,10.23
2017-12-12T08:35:16.951Z,9.43
2017-12-12T08:37:44.524Z,12.80
2017-12-12T08:40:12.126Z,9.93
2017-12-12T08:42:39.710Z,11.23
2017-12-12T08:45:07.326Z,10.10
2017-12-12T08:47:35.008Z,10.60
2017-12-12T08:50:02.579Z,10.07
2017-12-12T08:52:30.168Z,9.70
2017-12-12T08:54:57.765Z,10.13
2017-12-12T08:57:25.376Z,11.87
2017-12-12T08:59:52.948Z,10.20
2017-12-12T09:02:20.528Z,9.47
2017-12-12T09:04:48.119Z,9.77
2017-12-12T09:07:15.959Z,9.93
2017-12-12T09:09:43.650Z,10.23
2017-12-12T09:12:11.257Z,9.33
2017-12-12T09:14:39.115Z,12.20
2017-12-12T09:17:06.719Z,9.83
2017-12-12T09:19:34.388Z,9.07
2017-12-12T09:22:02.048Z,10.00
2017-12-12T09:24:29.664Z,9.40
2017-12-12T09:26:57.247Z,9.20
2017-12-12T09:29:24.888Z,9.30
2017-12-12T09:31:52.468Z,9.40
2017-12-12T09:34:20.595Z,9.50
2017-12-12T09:36:48.453Z,9.70
2017-12-12T09:39:16.154Z,9.23
2017-12-12T09:41:43.759Z,9.63
2017-12-12T09:44:11.367Z,9.03
2017-12-12T09:46:38.984Z,9.57
2017-12-12T09:49:06.556Z,9.60
2017-12-12T09:51:34.130Z,10.87
2017-12-12T09:54:02.019Z,9.50
2017-12-12T09:56:29.616Z,9.30
2017-12-12T09:58:57.552Z,9.50
2017-12-12T10:01:25.122Z,9.60
2017-12-12T10:03:52.694Z,8.83
2017-12-12T10:06:20.305Z,9.73
2017-12-12T10:08:47.904Z,9.40
2017-12-12T10:11:15.512Z,9.70
2017-12-12T10:13:43.327Z,9.20
2017-12-12T10:16:10.904Z,9.53
2017-12-12T10:18:38.500Z,10.30
2017-12-12T10:21:06.093Z,10.37
2017-12-12T10:23:33.684Z,9.57
2017-12-12T10:26:01.252Z,9.83
2017-12-12T10:28:28.875Z,9.90
2017-12-12T10:30:56.455Z,9.90
2017-12-12T10:33:24.155Z,9.57
2017-12-12T10:35:52.491Z,9.67
2017-12-12T10:38:20.444Z,9.97
2017-12-12T10:40:48.056Z,11.07
2017-12-12T10:43:15.667Z,9.57
2017-12-12T10:45:43.241Z,14.70
2017-12-12T10:48:10.852Z,9.73
2017-12-12T10:50:38.428Z,9.40
2017-12-12T10:53:06.056Z,9.40
2017-12-12T10:55:33.647Z,9.70
2017-12-12T10:58:01.243Z,9.53
2017-12-12T11:00:29.131Z,11.63
2017-12-12T11:02:56.740Z,9.53
2017-12-12T11:05:24.353Z,9.83
2017-12-12T11:07:52.186Z,9.23
2017-12-12T11:10:19.761Z,9.50
2017-12-12T11:12:47.856Z,11.07
2017-12-12T11:15:15.442Z,10.00
2017-12-12T11:17:43.354Z,10.10
2017-12-12T11:20:11.138Z,10.13
2017-12-12T11:22:38.705Z,10.90
2017-12-12T11:25:06.362Z,11.97
2017-12-12T11:27:33.956Z,11.63
2017-12-12T11:30:01.568Z,10.60
2017-12-12T11:32:29.177Z,11.53
2017-12-12T11:34:56.780Z,11.27
2017-12-12T11:37:30.092Z,10.90
2017-12-12T11:39:57.676Z,15.33
2017-12-12T11:42:25.300Z,13.30
2017-12-12T11:44:52.915Z,11.93
2017-12-12T11:47:20.516Z,12.70
2017-12-12T11:49:48.182Z,13.40
2017-12-12T11:52:15.895Z,11.23
2017-12-12T11:54:43.691Z,12.67
2017-12-12T11:57:11.524Z,10.77
2017-12-12T11:59:39.148Z,12.20
2017-12-12T12:02:06.744Z,14.60
2017-12-12T12:04:34.419Z,12.23
2017-12-12T12:07:02.090Z,13.20
2017-12-12T12:09:29.684Z,12.73
2017-12-12T12:11:57.302Z,14.20
2017-12-12T12:14:24.908Z,12.20
2017-12-12T12:16:52.475Z,11.20
2017-12-12T12:19:20.393Z,12.07
2017-12-12T12:21:48.210Z,17.63
2017-12-12T12:24:15.788Z,11.80
2017-12-12T12:26:43.436Z,11.87
2017-12-12T12:29:11.298Z,13.13
2017-12-12T12:31:38.912Z,13.63
2017-12-12T12:34:06.782Z,12.50
2017-12-12T12:36:34.358Z,16.73
2017-12-12T12:39:02.242Z,11.83
2017-12-12T12:41:29.819Z,11.20
2017-12-12T12:43:57.473Z,13.60
2017-12-12T12:46:25.044Z,10.30
2017-12-12T12:48:52.628Z,11.10
2017-12-12T12:51:20.242Z,13.17
2017-12-12T12:53:48.084Z,12.47
2017-12-12T12:56:15.692Z,10.87
2017-12-12T12:58:43.412Z,14.03
2017-12-12T13:01:10.993Z,11.27
2017-12-12T13:03:38.654Z,15.23
2017-12-12T13:06:06.236Z,12.60
2017-12-12T13:08:33.880Z,11.13
2017-12-12T13:11:01.476Z,13.63
2017-12-12T13:13:29.100Z,13.50
2017-12-12T13:15:56.721Z,14.53
2017-12-12T13:18:24.322Z,12.97
2017-12-12T13:20:51.980Z,11.70
2017-12-12T13:23:19.556Z,11.20
2017-12-12T13:25:47.136Z,10.90
2017-12-12T13:28:14.760Z,12.20
2017-12-12T13:30:42.355Z,12.67
2017-12-12T13:33:10.056Z,13.70
2017-12-12T13:35:37.932Z,11.63
2017-12-12T13:38:05.511Z,11.73
2017-12-12T13:40:33.152Z,16.20
2017-12-12T13:43:00.739Z,13.20
2017-12-12T13:45:28.709Z,14.10
2017-12-12T13:47:56.292Z,11.60
2017-12-12T13:50:23.997Z,11.80
2017-12-12T13:52:51.599Z,11.80
2017-12-12T13:55:19.172Z,13.60
2017-12-12T13:57:46.808Z,12.77
2017-12-12T14:00:15.212Z,11.37
2017-12-12T14:02:42.856Z,13.27
2017-12-12T14:05:10.480Z,11.63
2017-12-12T14:07:38.075Z,13.60
2017-12-12T14:10:05.701Z,14.43
2017-12-12T14:12:33.276Z,11.13
2017-12-12T14:15:00.874Z,11.90
2017-12-12T14:17:28.744Z,11.87
2017-12-12T14:19:56.328Z,12.30
2017-12-12T14:22:23.950Z,11.83
2017-12-12T14:24:51.823Z,11.97
2017-12-12T14:27:19.394Z,12.00
2017-12-12T14:29:47.002Z,11.70
2017-12-12T14:32:14.917Z,10.97
2017-12-12T14:34:42.583Z,11.90
2017-12-12T14:37:10.246Z,17.93
2017-12-12T14:39:37.911Z,13.17
2017-12-12T14:42:05.613Z,11.67
2017-12-12T14:44:33.212Z,12.00
2017-12-12T14:47:00.852Z,14.73
2017-12-12T14:49:28.567Z,12.30
2017-12-12T14:51:56.178Z,13.30
2017-12-12T14:54:23.784Z,11.47
2017-12-12T14:56:51.957Z,11.70
2017-12-12T14:59:19.556Z,12.70
2017-12-12T15:01:47.218Z,11.20
2017-12-12T15:04:14.847Z,12.30
2017-12-12T15:06:42.439Z,15.37
2017-12-12T15:09:10.080Z,12.40
2017-12-12T15:11:37.681Z,11.67
2017-12-12T15:14:05.522Z,11.47
2017-12-12T15:16:33.177Z,12.70
2017-12-12T15:19:01.169Z,12.27
2017-12-12T15:21:29.101Z,12.73
2017-12-12T15:23:56.733Z,13.90
2017-12-12T15:26:24.439Z,12.90
2017-12-12T15:28:52.091Z,12.03
2017-12-12T15:31:19.971Z,12.87
2017-12-12T15:33:47.581Z,14.17
2017-12-12T15:36:15.199Z,13.53
2017-12-12T15:38:43.052Z,13.63
2017-12-12T15:41:10.720Z,14.40
2017-12-12T15:43:38.343Z,15.73
2017-12-12T15:46:05.927Z,13.13
2017-12-12T15:48:33.806Z,14.50
2017-12-12T15:51:01.389Z,12.97
2017-12-12T15:53:29.008Z,13.30
2017-12-12T15:55:56.595Z,13.63
2017-12-12T15:58:24.184Z,14.27
2017-12-12T16:00:51.831Z,13.93
2017-12-12T16:03:19.424Z,16.27
2017-12-12T16:05:47.050Z,13.63
2017-12-12T16:08:14.887Z,15.10
2017-12-12T16:10:42.536Z,13.77
2017-12-12T16:13:10.183Z,14.33
2017-12-12T16:15:37.768Z,14.50
2017-12-12T16:18:05.440Z,13.10
2017-12-12T16:20:33.040Z,14.20
2017-12-12T16:23:00.661Z,15.20
2017-12-12T16:25:28.289Z,17.00
2017-12-12T16:27:55.880Z,13.03
2017-12-12T16:30:23.544Z,13.30
2017-12-12T16:32:51.133Z,13.00
2017-12-12T16:35:19.050Z,12.80
2017-12-12T16:37:46.965Z,12.50
2017-12-12T16:40:14.543Z,13.30
2017-12-12T16:42:42.159Z,12.87
2017-12-12T16:45:10.059Z,13.70
2017-12-12T16:47:38.649Z,13.80
2017-12-12T16:50:06.272Z,12.57
2017-12-12T16:52:33.912Z,13.07
2017-12-12T16:55:01.560Z,13.23
2017-12-12T16:57:29.457Z,12.30
2017-12-12T16:59:57.094Z,13.20
2017-12-12T17:02:24.764Z,12.57
2017-12-12T17:04:52.350Z,13.33
2017-12-12T17:07:20.074Z,12.50
2017-12-12T17:09:47.716Z,14.43
2017-12-12T17:12:15.444Z,12.20
2017-12-12T17:14:43.332Z,12.20
2017-12-12T17:17:10.930Z,13.27
2017-12-12T17:19:38.775Z,12.10
2017-12-12T17:22:06.373Z,13.37
2017-12-12T17:24:34.129Z,13.00
2017-12-12T17:27:02.073Z,13.57
2017-12-12T17:29:29.676Z,12.53
2017-12-12T17:31:57.433Z,12.20
2017-12-12T17:34:25.053Z,10.97
2017-12-12T17:36:52.925Z,11.67
2017-12-12T17:39:20.559Z,12.40
2017-12-12T17:41:48.286Z,14.50
2017-12-12T17:44:16.033Z,12.40
2017-12-12T17:46:43.606Z,12.13
2017-12-12T17:49:11.201Z,11.80
2017-12-12T17:51:38.928Z,11.00
2017-12-12T17:54:06.508Z,13.20
2017-12-12T17:56:34.203Z,11.90
2017-12-12T17:59:02.007Z,11.50
2017-12-12T18:01:29.701Z,11.50
2017-12-12T18:03:57.332Z,11.50
2017-12-12T18:06:25.193Z,11.80
2017-12-12T18:08:52.914Z,11.50
2017-12-12T18:11:20.769Z,11.37
2017-12-12T18:13:48.393Z,12.07
2017-12-12T18:16:16.005Z,12.53
2017-12-12T18:18:43.612Z,12.30
2017-12-12T18:21:11.460Z,11.63
2017-12-12T18:23:39.093Z,13.50
2017-12-12T18:26:06.738Z,13.57
2017-12-12T18:28:34.357Z,12.90
2017-12-12T18:31:02.492Z,13.57
2017-12-12T18:33:30.270Z,14.93
2017-12-12T18:35:57.883Z,13.10
2017-12-12T18:38:25.730Z,15.80
2017-12-12T18:40:53.343Z,14.20
2017-12-12T18:43:20.943Z,17.03
2017-12-12T18:45:48.554Z,18.53
2017-12-12T18:48:16.145Z,15.80
2017-12-12T18:50:43.792Z,16.40
2017-12-12T18:53:11.439Z,18.00
2017-12-12T18:55:39.377Z,17.93
2017-12-12T18:58:07.002Z,15.10
2017-12-12T19:00:34.843Z,15.40
2017-12-12T19:03:02.481Z,15.23
2017-12-12T19:05:30.108Z,18.97
2017-12-12T19:07:57.776Z,16.57
2017-12-12T19:10:25.844Z,20.97
2017-12-12T19:12:53.442Z,18.40
2017-12-12T19:15:21.252Z,15.70
2017-12-12T19:17:48.868Z,16.00
2017-12-12T19:20:16.460Z,19.20
2017-12-12T19:22:44.380Z,13.03
2017-12-12T19:25:11.969Z,15.57
2017-12-12T19:27:40.024Z,16.97
2017-12-12T19:30:07.662Z,15.33
2017-12-12T19:32:35.255Z,18.00
2017-12-12T19:35:02.916Z,14.00
2017-12-12T19:37:30.992Z,17.90
2017-12-12T19:39:58.668Z,16.23
2017-12-12T19:42:26.312Z,15.80
2017-12-12T19:44:53.978Z,17.60
2017-12-12T19:47:21.950Z,18.70
2017-12-12T19:49:49.676Z,18.20
2017-12-12T19:52:17.263Z,17.63
2017-12-12T19:54:44.888Z,19.37
2017-12-12T19:57:12.480Z,17.43
2017-12-12T19:59:40.113Z,16.83
2017-12-12T20:02:07.699Z,18.63
2017-12-12T20:04:35.338Z,18.93
2017-12-12T20:07:02.959Z,20.80
2017-12-12T20:09:30.594Z,21.50
2017-12-12T20:11:58.244Z,19.30
2017-12-12T20:14:25.883Z,21.63
2017-12-12T20:16:53.464Z,18.47
2017-12-12T20:19:22.212Z,21.37
2017-12-12T20:21:50.160Z,21.57
2017-12-12T20:24:17.780Z,19.67
2017-12-12T20:26:45.366Z,19.10
2017-12-12T20:29:12.963Z,21.10
2017-12-12T20:31:40.572Z,24.03
2017-12-12T20:34:08.182Z,21.93
2017-12-12T20:36:35.829Z,21.80
2017-12-12T20:39:03.427Z,21.67
2017-12-12T20:41:31.047Z,21.50
2017-12-12T20:43:58.951Z,19.70
2017-12-12T20:46:26.568Z,21.00
2017-12-12T20:48:54.446Z,20.77
2017-12-12T20:51:22.098Z,20.40
2017-12-12T20:53:51.524Z,18.80
2017-12-12T20:56:19.143Z,19.17
2017-12-12T20:58:46.771Z,19.53
2017-12-12T21:01:14.434Z,19.83
2017-12-12T21:03:42.041Z,21.17
2017-12-12T21:06:09.639Z,27.20
2017-12-12T21:08:37.244Z,20.13
2017-12-12T21:11:04.825Z,24.50
2017-12-12T21:13:32.701Z,24.27
2017-12-12T21:16:00.298Z,19.70
2017-12-12T21:18:28.200Z,19.43
2017-12-12T21:20:56.080Z,19.70
2017-12-12T21:23:23.756Z,20.60
2017-12-12T21:25:51.640Z,18.57
2017-12-12T21:28:19.229Z,22.37
2017-12-12T21:30:47.291Z,19.07
2017-12-12T21:33:15.315Z,17.93
2017-12-12T21:35:43.065Z,20.43
2017-12-12T21:38:10.706Z,17.73
2017-12-12T21:40:38.304Z,21.60
2017-12-12T21:43:05.921Z,21.07
2017-12-12T21:45:33.525Z,18.50
2017-12-12T21:48:01.174Z,18.60
2017-12-12T21:50:28.823Z,13.57
2017-12-12T21:52:56.427Z,18.53
2017-12-12T21:55:24.025Z,22.00
2017-12-12T21:57:51.688Z,15.37
2017-12-12T22:00:19.295Z,18.80
2017-12-12T22:02:47.196Z,16.83
2017-12-12T22:05:14.848Z,14.60
2017-12-12T22:07:42.728Z,23.70
2017-12-12T22:10:12.693Z,16.57
2017-12-12T22:12:40.587Z,16.50
2017-12-12T22:15:08.222Z,17.63
2017-12-12T22:17:36.146Z,15.80
2017-12-12T22:20:03.736Z,17.10
2017-12-12T22:22:31.369Z,15.93
2017-12-12T22:24:58.951Z,17.20
2017-12-12T22:27:26.535Z,18.27
2017-12-12T22:29:54.168Z,17.43
2017-12-12T22:32:22.028Z,16.10
2017-12-12T22:34:49.609Z,15.10
2017-12-12T22:37:17.556Z,18.93
2017-12-12T22:39:45.279Z,23.03
2017-12-12T22:42:12.885Z,17.50
2017-12-12T22:44:40.476Z,16.20
2017-12-12T22:47:08.077Z,16.23
2017-12-12T22:49:35.674Z,21.97
2017-12-12T22:52:03.255Z,16.53
2017-12-12T22:54:30.882Z,19.63
2017-12-12T22:56:58.851Z,20.50
2017-12-12T22:59:26.428Z,20.80
2017-12-12T23:01:54.057Z,16.63
2017-12-12T23:04:21.974Z,25.00
2017-12-12T23:06:49.645Z,18.90
2017-12-12T23:09:17.261Z,19.77
2017-12-12T23:11:45.139Z,19.80
2017-12-12T23:14:12.767Z,24.40
2017-12-12T23:16:40.368Z,18.03
2017-12-12T23:19:08.135Z,28.93
2017-12-12T23:21:35.724Z,21.83
2017-12-12T23:24:03.319Z,29.30
2017-12-12T23:26:30.956Z,25.00
2017-12-12T23:28:58.544Z,21.57
2017-12-12T23:31:26.172Z,19.73
2017-12-12T23:33:53.765Z,25.63
2017-12-12T23:36:21.356Z,26.40
2017-12-12T23:38:48.979Z,22.10
2017-12-12T23:41:16.566Z,30.33
2017-12-12T23:43:44.200Z,21.50
2017-12-12T23:46:11.850Z,22.00
2017-12-12T23:48:39.448Z,19.13
2017-12-12T23:51:07.337Z,20.60
2017-12-12T23:53:34.957Z,20.03
2017-12-12T23:56:02.583Z,24.90
2017-12-12T23:58:30.201Z,17.53
